Sutter Creek, California
Current Conditions -  °F | °C
As of 2:55 AM on Thursday 23 Oct 2014 (Local Time) from KPVF Reporting Station
Clear Clear  
Wind Chill: 57°   Ceiling: Unl
Heat Index: 57°   Visibility: 10mi
Dew Point: 34°   Wind: 0mph
Humidity: 41%   Direction: NA
Pressure: 30.08"   Gusts: NA
Location:  38.39°N, 120.8°W
Report Text: KPVF 230955Z AUTO 00000KT 10SM CLR 14/01 A3008 RMK AO1
Loading
Personal Weather Stations






























Interactive Weather Map
Tropical Storm Tracking
New forecast layout! Learn more

10-Day Weather Forecast

Advertisements
Track Severe Weather on mobile